Time;durP1;ratioP1;P1;durP2;ratioP2;P2;SDS_P1;SDS_P2;PMS_P1;PMS_P2;Temp;Humidity;BMP_temperature;BMP_pressure;BME280_temperature;BME280_humidity;BME280_pressure;Samples;Min_cycle;Max_cycle;Signal;HPM_P1;HPM_P2
2023/02/17 00:02:03;;;;;;;6.97;6.28;;;;;;;10.38;100.00;101718.66;6054931;23;20034;-72
2023/02/17 00:04:32;;;;;;;6.88;6.15;;;;;;;10.37;100.00;101725.66;6052133;23;20050;-72
2023/02/17 00:06:58;;;;;;;10.27;6.60;;;;;;;9.85;100.00;101632.16;6031621;23;20359;-72
2023/02/17 00:09:25;;;;;;;6.70;6.10;;;;;;;10.35;100.00;101708.28;6053058;23;20556;-72
2023/02/17 00:11:52;;;;;;;11.68;8.25;;;;;;;10.33;100.00;101703.06;6074639;23;20034;-72
2023/02/17 00:14:24;;;;;;;8.15;6.53;;;;;;;9.76;100.00;101607.97;6030020;23;20157;-73
2023/02/17 00:16:51;;;;;;;8.15;7.20;;;;;;;10.15;100.00;101686.16;6071716;23;20214;-72
2023/02/17 00:19:23;;;;;;;6.22;5.75;;;;;;;10.07;100.00;101653.25;6024425;23;20098;-72
2023/02/17 00:21:54;;;;;;;11.05;5.95;;;;;;;10.29;100.00;101695.34;6073847;23;20038;-71
2023/02/17 00:24:22;;;;;;;8.00;6.18;;;;;;;10.13;100.00;101667.00;5996670;23;20286;-72
2023/02/17 00:26:48;;;;;;;7.78;7.07;;;;;;;9.63;100.00;101577.00;6054403;23;20064;-72
2023/02/17 00:29:16;;;;;;;7.57;6.57;;;;;;;9.96;100.00;101619.50;6050558;23;20476;-74
2023/02/17 00:31:44;;;;;;;7.13;6.55;;;;;;;10.19;100.00;101674.66;6078070;23;20017;-73
2023/02/17 00:34:11;;;;;;;6.80;6.20;;;;;;;9.69;100.00;101587.25;6023928;23;20030;-74
2023/02/17 00:36:39;;;;;;;6.93;6.25;;;;;;;10.39;100.00;101691.50;6046939;23;20030;-72
2023/02/17 00:39:05;;;;;;;6.30;5.80;;;;;;;9.77;100.00;101603.56;6075729;23;20072;-71
2023/02/17 00:41:32;;;;;;;6.20;5.80;;;;;;;9.91;100.00;101614.44;6028828;23;20302;-73
2023/02/17 00:43:59;;;;;;;6.97;6.38;;;;;;;10.25;100.00;101686.72;6074895;23;20029;-72
2023/02/17 00:46:26;;;;;;;10.20;6.57;;;;;;;10.05;100.00;101673.44;6048685;23;20090;-73
2023/02/17 00:48:52;;;;;;;6.88;6.38;;;;;;;9.61;100.00;101568.31;6051432;23;20026;-72
2023/02/17 00:51:19;;;;;;;6.40;5.90;;;;;;;9.96;100.00;101632.63;6069796;23;20026;-72
2023/02/17 00:53:46;;;;;;;10.80;6.53;;;;;;;10.44;100.00;101691.34;6037951;23;20082;-72
2023/02/17 00:56:14;;;;;;;8.68;7.40;;;;;;;9.68;100.00;101589.03;6021962;23;20030;-73
2023/02/17 00:58:41;;;;;;;6.97;6.25;;;;;;;10.19;100.00;101663.31;6020258;23;20014;-73
2023/02/17 01:01:10;;;;;;;9.38;6.63;;;;;;;9.91;100.00;101606.56;6048079;23;20037;-73
2023/02/17 01:03:37;;;;;;;6.53;6.03;;;;;;;9.70;100.00;101584.59;6072065;23;20038;-72
2023/02/17 01:06:08;;;;;;;6.95;6.22;;;;;;;9.84;100.00;101612.94;6049244;23;20436;-73
2023/02/17 01:08:35;;;;;;;7.15;6.45;;;;;;;10.29;100.00;101672.56;6047098;23;20223;-73
2023/02/17 01:11:04;;;;;;;7.13;6.47;;;;;;;9.79;100.00;101600.00;6049901;23;20037;-73
2023/02/17 01:13:31;;;;;;;8.20;7.38;;;;;;;10.04;100.00;101622.72;6066227;23;20643;-72
2023/02/17 01:15:57;;;;;;;7.32;6.72;;;;;;;10.10;100.00;101627.78;5993776;23;20093;-73
2023/02/17 01:18:24;;;;;;;8.02;6.60;;;;;;;10.25;100.00;101636.88;6050264;23;20022;-72
2023/02/17 01:20:51;;;;;;;6.90;6.30;;;;;;;9.82;100.00;101564.94;6049767;23;20512;-72
2023/02/17 01:23:19;;;;;;;6.53;5.93;;;;;;;9.97;100.00;101595.03;6066806;23;20079;-72
2023/02/17 01:25:47;;;;;;;7.50;6.85;;;;;;;10.31;100.00;101634.06;6025343;23;20253;-74
2023/02/17 01:28:23;;;;;;;5.45;5.05;;;;;;;10.33;100.00;101628.75;6052601;23;20345;-72
2023/02/17 01:30:52;;;;;;;7.55;6.25;;;;;;;10.31;100.00;101639.28;6051035;23;20253;-71
2023/02/17 01:33:20;;;;;;;6.35;5.75;;;;;;;9.76;100.00;101542.44;6073118;23;20034;-74
2023/02/17 01:35:46;;;;;;;10.65;7.03;;;;;;;9.87;100.00;101565.66;5999132;23;20505;-72
2023/02/17 01:38:12;;;;;;;10.70;5.45;;;;;;;9.81;100.00;101542.28;6043430;23;20034;-72
2023/02/17 01:40:46;;;;;;;6.93;5.68;;;;;;;10.19;100.00;101627.44;6042405;23;20335;-72
2023/02/17 01:43:17;;;;;;;6.63;5.95;;;;;;;10.25;100.00;101613.25;6047819;23;20104;-73
2023/02/17 01:45:55;;;;;;;6.20;5.70;;;;;;;9.08;100.00;101441.75;6048562;23;20084;-72
2023/02/17 01:48:24;;;;;;;10.20;6.68;;;;;;;10.34;100.00;101631.31;6049371;23;20030;-71
2023/02/17 01:51:15;;;;;;;7.50;6.68;;;;;;;10.30;100.00;101661.22;6069105;23;20266;-72
2023/02/17 01:53:48;;;;;;;7.60;6.93;;;;;;;10.29;100.00;101622.72;6046086;23;20083;-71
2023/02/17 01:56:16;;;;;;;6.38;5.82;;;;;;;10.18;100.00;101615.25;6069066;23;20025;-72
2023/02/17 01:58:52;;;;;;;7.93;7.22;;;;;;;9.89;100.00;101550.72;6019355;23;20038;-72
2023/02/17 02:01:20;;;;;;;9.00;6.88;;;;;;;10.32;100.00;101621.78;6051869;23;20112;-73
2023/02/17 02:03:46;;;;;;;6.28;5.88;;;;;;;10.19;100.00;101600.34;6046715;23;20189;-76
2023/02/17 02:06:18;;;;;;;6.25;5.65;;;;;;;10.20;100.00;101602.06;6028942;23;20333;-72
2023/02/17 02:09:03;;;;;;;11.70;8.03;;;;;;;9.98;100.00;101573.13;6047925;23;20081;-72
2023/02/17 02:11:34;;;;;;;7.68;6.97;;;;;;;10.27;100.00;101602.72;6077131;23;20143;-72
2023/02/17 02:14:05;;;;;;;10.25;6.45;;;;;;;9.69;100.00;101516.50;6046607;23;20016;-73
2023/02/17 02:16:38;;;;;;;6.45;5.88;;;;;;;10.06;100.00;101557.13;6048098;23;20058;-72
2023/02/17 02:19:44;;;;;;;7.55;5.93;;;;;;;10.29;100.00;101609.59;6040795;23;20105;-72
2023/02/17 02:22:34;;;;;;;6.43;5.88;;;;;;;10.27;100.00;101614.06;6050872;23;20030;-73
2023/02/17 02:25:31;;;;;;;8.23;7.53;;;;;;;9.49;100.00;101493.59;6026030;23;20109;-72
2023/02/17 02:28:19;;;;;;;6.72;6.22;;;;;;;10.15;100.00;101588.28;6057204;23;20022;-73
2023/02/17 02:31:08;;;;;;;5.45;5.05;;;;;;;10.26;100.00;101603.59;6049493;23;20259;-73
2023/02/17 02:33:49;;;;;;;6.55;6.05;;;;;;;10.28;100.00;101607.03;6034892;23;20061;-72
2023/02/17 02:36:28;;;;;;;7.47;6.15;;;;;;;10.24;100.00;101597.56;6054587;23;20092;-73
2023/02/17 02:39:03;;;;;;;7.97;6.18;;;;;;;9.66;100.00;101506.97;6054728;23;20023;-72
2023/02/17 02:41:38;;;;;;;6.13;5.68;;;;;;;10.19;100.00;101597.72;6029293;23;20042;-72
2023/02/17 02:44:08;;;;;;;6.78;6.28;;;;;;;10.14;100.00;101584.78;6071018;23;20022;-72
2023/02/17 02:46:35;;;;;;;13.27;5.53;;;;;;;10.23;100.00;101591.47;6054847;23;20074;-72
2023/02/17 02:49:03;;;;;;;7.00;6.32;;;;;;;10.24;100.00;101587.91;6051904;23;20029;-73
2023/02/17 02:51:53;;;;;;;6.40;5.90;;;;;;;10.25;100.00;101578.28;6050679;23;20101;-72
2023/02/17 02:54:32;;;;;;;7.55;5.95;;;;;;;10.19;100.00;101585.47;6047473;23;20097;-71
2023/02/17 02:57:18;;;;;;;6.65;6.15;;;;;;;10.18;100.00;101581.16;6051743;23;20038;-72
2023/02/17 03:00:09;;;;;;;6.00;5.50;;;;;;;10.04;100.00;101551.06;6050765;23;20385;-72
2023/02/17 03:03:02;;;;;;;8.05;6.50;;;;;;;10.24;100.00;101576.56;6055812;23;20220;-72
2023/02/17 03:06:06;;;;;;;6.25;5.65;;;;;;;10.21;100.00;101574.94;6050445;23;20274;-72
2023/02/17 03:08:37;;;;;;;6.75;6.10;;;;;;;10.25;100.00;101578.28;6054804;23;20045;-73
2023/02/17 03:11:05;;;;;;;9.63;5.82;;;;;;;10.12;100.00;101547.28;6071947;23;20460;-72
2023/02/17 03:13:36;;;;;;;7.25;6.55;;;;;;;10.15;100.00;101559.41;6054006;23;20772;-73
2023/02/17 03:16:05;;;;;;;7.13;6.43;;;;;;;9.89;100.00;101502.66;6049280;23;20026;-73
2023/02/17 03:18:33;;;;;;;5.88;5.45;;;;;;;10.11;100.00;101542.94;6046711;23;20226;-72
2023/02/17 03:21:10;;;;;;;6.97;6.13;;;;;;;10.21;100.00;101559.19;6046116;23;20132;-72
2023/02/17 03:23:37;;;;;;;7.55;6.70;;;;;;;10.25;100.00;101558.16;6054687;23;20030;-71
2023/02/17 03:26:04;;;;;;;6.93;6.32;;;;;;;8.84;100.00;101345.69;6050394;23;20026;-70
2023/02/17 03:28:34;;;;;;;6.38;5.72;;;;;;;10.24;100.00;101556.44;6051066;23;20022;-72
2023/02/17 03:31:01;;;;;;;8.15;6.40;;;;;;;9.86;100.00;101497.53;6075737;23;20758;-72
2023/02/17 03:33:27;;;;;;;6.68;6.15;;;;;;;9.95;100.00;101518.19;6032100;23;20026;-72
2023/02/17 03:35:54;;;;;;;7.68;6.97;;;;;;;10.21;100.00;101564.44;6048857;23;20023;-71
2023/02/17 03:38:20;;;;;;;7.10;6.53;;;;;;;10.24;100.00;101555.59;6053272;23;20058;-72
2023/02/17 03:40:47;;;;;;;7.20;5.93;;;;;;;9.83;100.00;101493.25;6053337;23;20018;-72
2023/02/17 03:43:15;;;;;;;6.65;6.00;;;;;;;10.24;100.00;101556.44;6053788;23;20708;-72
2023/02/17 03:45:43;;;;;;;6.32;5.75;;;;;;;9.72;100.00;101458.69;6050118;23;20018;-72
2023/02/17 03:48:09;;;;;;;6.90;6.15;;;;;;;7.62;100.00;101122.31;6050621;23;20108;-73
2023/02/17 03:50:36;;;;;;;6.32;5.85;;;;;;;10.25;100.00;101558.16;6073777;23;20660;-72
2023/02/17 03:53:05;;;;;;;6.57;6.03;;;;;;;10.26;100.00;101556.38;6053116;23;20027;-72
2023/02/17 03:55:32;;;;;;;9.75;7.15;;;;;;;9.99;100.00;101509.28;6047792;23;20022;-72
2023/02/17 03:57:59;;;;;;;6.60;6.00;;;;;;;10.07;100.00;101551.81;6049362;23;20477;-73
2023/02/17 04:00:25;;;;;;;7.05;6.38;;;;;;;9.97;100.00;101511.97;6025313;23;20042;-73
2023/02/17 04:02:52;;;;;;;6.75;6.25;;;;;;;10.37;100.00;101552.47;6074085;23;20091;-72
2023/02/17 04:05:18;;;;;;;6.38;5.88;;;;;;;9.88;100.00;101473.00;6047766;23;20102;-71
2023/02/17 04:07:45;;;;;;;6.10;5.50;;;;;;;10.19;100.00;101529.53;6048849;23;20034;-73
2023/02/17 04:10:11;;;;;;;6.75;6.05;;;;;;;9.72;100.00;101450.84;6068212;23;20092;-72
2023/02/17 04:12:38;;;;;;;7.07;6.40;;;;;;;9.87;100.00;101479.13;6023217;23;20115;-73
2023/02/17 04:15:05;;;;;;;7.28;6.57;;;;;;;10.07;100.00;101514.25;6047798;23;20441;-73
2023/02/17 04:17:31;;;;;;;7.55;6.32;;;;;;;10.32;100.00;101559.69;6064314;23;20014;-73
2023/02/17 04:19:57;;;;;;;8.50;6.18;;;;;;;9.89;100.00;101487.78;6047606;23;20034;-72
2023/02/17 04:22:24;;;;;;;6.40;5.90;;;;;;;10.33;100.00;101563.16;6024703;23;20102;-71
2023/02/17 04:24:50;;;;;;;8.32;7.03;;;;;;;10.34;100.00;101563.13;6025072;23;20063;-72
2023/02/17 04:27:17;;;;;;;7.30;6.70;;;;;;;10.29;100.00;101549.25;6048230;23;20143;-72
2023/02/17 04:29:43;;;;;;;5.97;5.57;;;;;;;10.13;100.00;101520.13;6052873;23;20022;-72
2023/02/17 04:32:10;;;;;;;6.35;5.88;;;;;;;10.33;100.00;101560.53;6062772;23;20030;-73
2023/02/17 04:34:37;;;;;;;6.60;6.00;;;;;;;10.45;100.00;101565.31;6045177;23;20047;-73
2023/02/17 04:37:04;;;;;;;6.70;6.20;;;;;;;10.10;100.00;101522.00;6071443;23;20140;-73
2023/02/17 04:39:30;;;;;;;6.75;6.30;;;;;;;10.25;100.00;101537.16;6047914;23;20063;-72
2023/02/17 04:42:00;;;;;;;6.47;5.60;;;;;;;10.41;100.00;101555.00;6050565;23;20214;-72
2023/02/17 04:44:26;;;;;;;5.90;5.38;;;;;;;10.06;100.00;101510.75;6049887;23;20014;-72
2023/02/17 04:46:52;;;;;;;6.38;5.88;;;;;;;10.13;100.00;101516.66;6046655;23;20026;-73
2023/02/17 04:49:21;;;;;;;7.65;7.00;;;;;;;10.44;100.00;101562.75;6072074;23;20297;-72
2023/02/17 04:51:48;;;;;;;6.07;5.68;;;;;;;10.42;100.00;101560.16;6048889;23;20587;-72
2023/02/17 04:54:14;;;;;;;6.85;6.10;;;;;;;10.43;100.00;101555.81;6070032;23;20033;-73
2023/02/17 04:56:41;;;;;;;7.05;6.40;;;;;;;10.10;100.00;101501.00;6048018;23;20013;-73
2023/02/17 04:59:07;;;;;;;5.90;5.50;;;;;;;10.30;100.00;101542.28;6044502;23;20088;-72
2023/02/17 05:01:34;;;;;;;5.97;5.47;;;;;;;10.26;100.00;101533.63;6049546;23;20082;-73
2023/02/17 05:04:00;;;;;;;6.53;5.80;;;;;;;10.39;100.00;101547.19;6068078;23;20038;-72
2023/02/17 05:06:27;;;;;;;6.10;5.70;;;;;;;10.44;100.00;101557.50;6020729;23;20022;-72
2023/02/17 05:08:53;;;;;;;6.72;6.22;;;;;;;10.49;100.00;101566.06;6050229;23;20195;-72
2023/02/17 05:11:19;;;;;;;6.47;6.03;;;;;;;9.98;100.00;101476.97;6047397;23;20512;-73
2023/02/17 05:13:46;;;;;;;8.27;5.15;;;;;;;10.03;100.00;101504.78;6048708;23;20050;-72
2023/02/17 05:16:12;;;;;;;6.28;5.78;;;;;;;10.40;100.00;101574.28;6049893;23;20042;-72
2023/02/17 05:18:39;;;;;;;6.63;6.10;;;;;;;10.12;100.00;101499.19;6067428;23;20024;-72
2023/02/17 05:21:09;;;;;;;6.72;6.13;;;;;;;10.51;100.00;101562.47;6044209;23;20045;-73
2023/02/17 05:23:39;;;;;;;6.10;5.65;;;;;;;10.16;100.00;101511.28;6044725;23;20235;-73
2023/02/17 05:26:10;;;;;;;6.00;5.57;;;;;;;10.27;100.00;101532.72;6019378;23;20632;-72
2023/02/17 05:28:36;;;;;;;5.72;5.28;;;;;;;9.82;100.00;101443.50;6044014;23;20092;-74
2023/02/17 05:31:03;;;;;;;7.13;6.10;;;;;;;9.91;100.00;101464.13;6048068;23;20422;-73
2023/02/17 05:33:30;;;;;;;6.40;5.90;;;;;;;10.34;100.00;101529.00;6070835;23;20097;-72
2023/02/17 05:36:04;;;;;;;8.40;6.50;;;;;;;10.12;100.00;101486.94;6043732;23;20031;-72
2023/02/17 05:38:31;;;;;;;5.78;5.20;;;;;;;10.07;100.00;101474.91;6044640;23;20030;-72
2023/02/17 05:40:58;;;;;;;6.47;6.05;;;;;;;10.17;100.00;101505.97;6046712;23;20163;-72
2023/02/17 05:43:25;;;;;;;5.95;5.55;;;;;;;10.48;100.00;101540.72;6027449;23;20257;-72
2023/02/17 05:45:51;;;;;;;5.93;5.25;;;;;;;10.30;100.00;101527.41;6047588;23;20650;-73
2023/02/17 05:48:18;;;;;;;5.68;5.28;;;;;;;10.11;100.00;101482.59;6073307;23;20026;-72
2023/02/17 05:50:45;;;;;;;5.93;5.53;;;;;;;10.51;100.00;101532.75;5994676;23;20700;-73
2023/02/17 05:53:11;;;;;;;6.57;6.07;;;;;;;10.54;100.00;101541.38;6067909;23;20441;-73
2023/02/17 05:55:38;;;;;;;6.07;5.68;;;;;;;10.04;100.00;101438.31;6043779;23;20026;-73
2023/02/17 05:58:05;;;;;;;6.35;5.78;;;;;;;9.94;100.00;101433.44;6026357;23;20392;-72
2023/02/17 06:00:31;;;;;;;6.15;5.72;;;;;;;10.35;100.00;101501.84;6038777;23;20027;-73
2023/02/17 06:02:58;;;;;;;6.28;5.68;;;;;;;9.99;100.00;101460.31;6048941;23;20045;-72
2023/02/17 06:05:24;;;;;;;5.93;5.45;;;;;;;9.96;100.00;101441.22;6021461;23;20041;-72
2023/02/17 06:07:53;;;;;;;7.03;6.43;;;;;;;10.20;100.00;101478.75;6073351;23;20042;-72
2023/02/17 06:10:20;;;;;;;6.85;6.30;;;;;;;10.26;100.00;101498.66;6047595;23;20167;-72
2023/02/17 06:12:47;;;;;;;6.90;6.32;;;;;;;10.56;100.00;101550.03;6052492;23;20018;-72
2023/02/17 06:15:13;;;;;;;5.80;5.40;;;;;;;10.57;100.00;101548.25;6017297;23;20159;-73
2023/02/17 06:17:40;;;;;;;5.60;5.25;;;;;;;10.20;100.00;101473.53;6031190;23;20038;-72
2023/02/17 06:20:08;;;;;;;6.00;5.43;;;;;;;9.91;100.00;101423.03;6046105;23;20030;-73
2023/02/17 06:22:34;;;;;;;6.65;6.15;;;;;;;9.97;100.00;101435.91;6045337;23;20120;-72
2023/02/17 06:25:01;;;;;;;6.82;6.32;;;;;;;10.64;100.00;101533.13;6021397;23;20026;-72
2023/02/17 06:27:27;;;;;;;5.45;5.05;;;;;;;10.27;100.00;101492.53;6049311;23;20029;-74
2023/02/17 06:29:54;;;;;;;10.40;5.22;;;;;;;10.07;100.00;101443.44;6049866;23;20033;-73
2023/02/17 06:32:20;;;;;;;6.72;6.22;;;;;;;10.64;100.00;101523.47;6046712;23;20031;-74
2023/02/17 06:34:47;;;;;;;8.00;5.90;;;;;;;10.54;100.00;101501.13;6020130;23;20031;-73
2023/02/17 06:37:14;;;;;;;6.28;5.78;;;;;;;10.68;100.00;101530.28;6015161;23;20088;-73
2023/02/17 06:39:40;;;;;;;5.97;5.47;;;;;;;10.28;100.00;101484.56;6049896;23;20093;-72
2023/02/17 06:42:10;;;;;;;6.43;5.97;;;;;;;10.69;100.00;101528.56;6047932;23;20284;-73
2023/02/17 06:44:37;;;;;;;6.97;6.15;;;;;;;10.48;100.00;101517.94;6048263;23;20025;-72
2023/02/17 06:47:03;;;;;;;6.63;6.03;;;;;;;10.65;100.00;101540.94;6044161;23;20023;-71
2023/02/17 06:49:29;;;;;;;5.63;5.13;;;;;;;10.04;100.00;101433.06;6050681;23;20026;-70
2023/02/17 06:51:56;;;;;;;6.90;5.30;;;;;;;10.17;100.00;101479.75;6045288;23;20022;-72
2023/02/17 06:54:22;;;;;;;6.53;5.97;;;;;;;10.69;100.00;101537.28;6066317;23;20038;-71
2023/02/17 06:56:49;;;;;;;11.77;6.25;;;;;;;10.09;100.00;101437.22;6043950;23;20015;-71
2023/02/17 06:59:15;;;;;;;5.82;5.43;;;;;;;10.25;100.00;101465.50;6021357;23;20050;-69
2023/02/17 07:01:41;;;;;;;6.03;5.53;;;;;;;10.45;100.00;101485.75;6044812;23;20049;-68
2023/02/17 07:04:08;;;;;;;10.80;6.57;;;;;;;10.21;100.00;101453.41;6046744;23;20181;-69
2023/02/17 07:06:34;;;;;;;6.80;6.20;;;;;;;10.53;100.00;101517.78;6041584;23;20274;-69
2023/02/17 07:09:01;;;;;;;5.50;5.00;;;;;;;9.32;100.00;101323.91;6050973;23;20011;-69
2023/02/17 07:11:30;;;;;;;6.85;6.22;;;;;;;10.63;100.00;101526.16;6050528;23;20032;-69
2023/02/17 07:13:56;;;;;;;5.45;5.03;;;;;;;10.61;100.00;101518.34;6072219;23;20152;-69
2023/02/17 07:16:23;;;;;;;5.43;5.07;;;;;;;9.27;100.00;101286.56;6052534;23;20538;-69
2023/02/17 07:18:50;;;;;;;6.30;5.68;;;;;;;10.66;100.00;101531.28;6051666;23;20070;-69
2023/02/17 07:21:17;;;;;;;6.47;5.88;;;;;;;10.68;100.00;101519.78;6070593;23;20074;-69
2023/02/17 07:23:44;;;;;;;5.88;5.40;;;;;;;10.59;100.00;101491.31;6047371;23;20046;-69
2023/02/17 07:26:13;;;;;;;8.00;6.22;;;;;;;10.62;100.00;101499.03;6048154;23;20030;-69
2023/02/17 07:28:39;;;;;;;6.72;6.18;;;;;;;10.74;100.00;101523.94;6052075;23;20030;-70
2023/02/17 07:31:12;;;;;;;6.72;6.03;;;;;;;10.65;100.00;101498.94;6048624;23;20054;-70
2023/02/17 07:33:39;;;;;;;6.03;5.47;;;;;;;10.55;100.00;101466.09;6076899;23;20041;-69
2023/02/17 07:36:06;;;;;;;6.03;5.50;;;;;;;10.82;100.00;101518.41;6026509;23;20293;-69
2023/02/17 07:38:34;;;;;;;13.82;5.47;;;;;;;10.81;100.00;101514.09;6026520;23;20139;-70
2023/02/17 07:41:10;;;;;;;5.85;5.45;;;;;;;10.52;100.00;101456.59;6068152;23;20033;-69
2023/02/17 07:43:36;;;;;;;9.20;7.18;;;;;;;10.85;100.00;101513.03;6050421;23;20194;-69
2023/02/17 07:46:03;;;;;;;6.65;6.15;;;;;;;10.91;100.00;101531.19;6073505;23;20022;-69
2023/02/17 07:48:31;;;;;;;5.57;5.18;;;;;;;10.38;100.00;101449.25;6025259;23;20023;-68
2023/02/17 07:51:09;;;;;;;6.20;5.80;;;;;;;10.92;100.00;101527.63;6049420;23;20334;-70
2023/02/17 07:53:37;;;;;;;6.75;6.10;;;;;;;10.60;100.00;101474.63;6048406;23;20026;-69
2023/02/17 07:56:04;;;;;;;6.60;5.97;;;;;;;10.80;100.00;101510.59;6070080;23;20092;-69
2023/02/17 07:58:32;;;;;;;5.22;4.80;;;;;;;10.64;100.00;101464.88;6047113;23;20575;-69
2023/02/17 08:01:25;;;;;;;6.30;5.80;;;;;;;10.91;100.00;101513.63;6053000;23;20330;-69
2023/02/17 08:03:52;;;;;;;8.35;5.88;;;;;;;10.86;100.00;101502.44;6019594;23;20085;-69
2023/02/17 08:06:23;;;;;;;6.15;5.65;;;;;;;11.09;100.00;101535.69;6067241;23;20029;-70
2023/02/17 08:14:32;;;;;;;20.20;5.38;;;;;;;11.27;100.00;101539.31;6068950;23;20022;-69
2023/02/17 08:16:58;;;;;;;6.40;5.80;;;;;;;11.24;100.00;101539.44;6047804;23;20034;-69
2023/02/17 08:19:25;;;;;;;6.20;5.70;;;;;;;10.95;100.00;101488.13;6047543;23;20195;-69
2023/02/17 08:22:04;;;;;;;5.80;5.40;;;;;;;11.07;100.00;101489.38;6050326;23;20414;-70
2023/02/17 08:24:31;;;;;;;5.47;5.07;;;;;;;11.34;100.00;101539.91;6049869;23;20034;-69
2023/02/17 08:26:57;;;;;;;6.35;5.93;;;;;;;11.35;100.00;101541.63;6047009;23;20424;-70
2023/02/17 08:29:24;;;;;;;5.55;5.15;;;;;;;11.42;100.00;101532.56;6049358;23;20109;-70
2023/02/17 08:31:52;;;;;;;6.30;5.80;;;;;;;10.47;100.00;101371.06;6068639;23;20026;-69
2023/02/17 08:34:19;;;;;;;6.28;5.78;;;;;;;11.50;100.00;101524.34;6043203;23;20265;-69
2023/02/17 08:36:45;;;;;;;6.53;5.93;;;;;;;11.22;100.00;101480.00;6047798;23;20030;-70
2023/02/17 08:39:15;;;;;;;6.03;5.53;;;;;;;11.15;100.00;101458.38;6069889;23;20096;-70
2023/02/17 08:41:44;;;;;;;5.72;5.22;;;;;;;11.66;100.00;101537.69;6021351;23;20124;-70
2023/02/17 08:44:16;;;;;;;6.05;5.55;;;;;;;11.40;100.00;101488.88;6064560;23;20075;-70
2023/02/17 08:46:44;;;;;;;5.83;5.40;;;;;;;11.69;100.00;101537.56;6019283;23;20725;-70
2023/02/17 08:49:10;;;;;;;6.30;5.72;;;;;;;11.45;100.00;101494.78;6046887;23;20299;-70
2023/02/17 08:51:37;;;;;;;5.60;5.20;;;;;;;10.83;100.00;101392.31;6049118;23;20119;-70
2023/02/17 08:54:05;;;;;;;5.85;5.47;;;;;;;11.82;100.00;101530.00;6060760;23;20126;-69
2023/02/17 08:56:33;;;;;;;7.38;5.15;;;;;;;11.57;100.00;101491.63;6046684;23;20033;-70
2023/02/17 08:58:59;;;;;;;5.70;5.30;;;;;;;11.61;100.00;101484.47;6047787;23;20461;-69
2023/02/17 09:01:26;;;;;;;5.90;5.55;;;;;;;11.58;100.00;101457.34;6046190;23;20047;-69
2023/02/17 09:03:55;;;;;;;5.57;5.20;;;;;;;12.14;100.00;101529.41;6048255;23;20027;-69
2023/02/17 09:06:22;;;;;;;5.95;5.45;;;;;;;11.93;100.00;101481.28;6023123;23;20056;-70
2023/02/17 09:08:49;;;;;;;5.65;5.30;;;;;;;11.11;100.00;101347.31;6021569;23;20257;-70
2023/02/17 09:11:17;;;;;;;6.25;5.85;;;;;;;12.25;100.00;101534.22;6046495;23;20093;-69
2023/02/17 09:13:44;;;;;;;17.35;5.72;;;;;;;12.28;100.00;101539.31;6049042;23;20132;-68
2023/02/17 09:16:11;;;;;;;5.72;5.38;;;;;;;12.35;100.00;101538.13;6047851;23;20099;-69
2023/02/17 09:18:38;;;;;;;6.10;5.53;;;;;;;12.35;100.00;101519.69;6047453;23;20318;-70
2023/02/17 09:21:10;;;;;;;5.65;5.22;;;;;;;12.30;100.00;101519.03;6022533;23;20026;-69
2023/02/17 09:23:37;;;;;;;;;;;;;;;12.44;100.00;101541.25;6047110;23;20034;-70
2023/02/17 09:26:09;;;;;;;7.18;6.05;;;;;;;12.52;100.00;101523.31;6047048;23;20259;-70
2023/02/17 09:28:37;;;;;;;6.00;5.50;;;;;;;12.65;100.00;101532.34;6047075;23;20033;-69
2023/02/17 09:31:18;;;;;;;5.60;5.20;;;;;;;12.07;100.00;101441.19;6047649;23;20381;-69
2023/02/17 09:33:47;;;;;;;6.18;5.75;;;;;;;12.70;100.00;101526.84;6048015;23;20022;-68
2023/02/17 09:36:17;;;;;;;5.93;5.47;;;;;;;12.74;100.00;101542.44;6045439;23;20033;-70
2023/02/17 09:38:44;;;;;;;6.55;6.05;;;;;;;12.41;100.00;101480.84;6067968;23;20030;-70
2023/02/17 09:41:22;;;;;;;5.50;5.03;;;;;;;12.80;100.00;101530.75;6042628;23;20329;-69
2023/02/17 09:43:51;;;;;;;5.68;5.28;;;;;;;12.76;100.00;101511.59;6035226;23;20211;-70
2023/02/17 09:46:44;;;;;;;5.72;5.30;;;;;;;12.94;100.00;101538.84;6019854;23;20034;-70
2023/02/17 09:49:36;;;;;;;6.05;5.60;;;;;;;13.07;100.00;101544.38;6066253;23;20123;-69
2023/02/17 09:52:13;;;;;;;5.85;5.30;;;;;;;13.22;100.00;101541.91;6017675;23;20022;-69
2023/02/17 09:55:04;;;;;;;5.63;5.32;;;;;;;13.32;100.00;101540.56;6070385;23;20030;-70
2023/02/17 09:57:40;;;;;;;6.00;5.57;;;;;;;13.23;100.00;101491.75;6043881;23;20290;-70
2023/02/17 10:00:14;;;;;;;5.50;5.18;;;;;;;13.06;100.00;101481.22;6048664;23;20122;-70
2023/02/17 10:03:02;;;;;;;9.98;5.43;;;;;;;13.55;100.00;101537.63;6047268;23;20029;-70
2023/02/17 10:05:35;;;;;;;5.95;5.55;;;;;;;13.45;100.00;101532.88;6067660;23;20248;-70
2023/02/17 10:08:10;;;;;;;5.75;5.35;;;;;;;13.55;100.00;101545.53;6048119;23;20131;-69
2023/02/17 10:11:13;;;;;;;6.47;6.00;;;;;;;13.57;100.00;101538.38;6045040;23;20127;-69
2023/02/17 10:13:43;;;;;;;5.65;5.25;;;;;;;12.87;100.00;101418.03;6018999;23;20025;-69
2023/02/17 10:16:19;;;;;;;5.50;5.20;;;;;;;13.62;100.00;101535.50;6051204;23;20026;-70
2023/02/17 10:18:52;;;;;;;5.63;5.22;;;;;;;13.08;100.00;101477.56;6017478;23;20175;-70
2023/02/17 10:21:26;;;;;;;5.65;5.25;;;;;;;13.57;100.00;101546.28;6038959;23;20097;-70
2023/02/17 10:23:53;;;;;;;5.50;5.18;;;;;;;13.50;100.00;101499.22;6014496;23;20031;-70
2023/02/17 10:26:25;;;;;;;5.70;5.30;;;;;;;14.00;100.00;101539.72;6019260;23;20106;-70
2023/02/17 10:29:01;;;;;;;5.65;5.28;;;;;;;14.04;99.43;101544.75;6036442;23;20445;-68
2023/02/17 10:31:40;;;;;;;5.63;5.22;;;;;;;14.23;98.05;101546.38;6017591;23;20545;-69
2023/02/17 10:34:33;;;;;;;5.50;5.20;;;;;;;14.32;95.20;101522.97;6015511;23;20019;-70
2023/02/17 10:37:03;;;;;;;;;;;;;;;14.31;94.41;101523.94;6015184;23;20326;-70
2023/02/17 10:39:49;;;;;;;6.22;5.85;;;;;;;14.42;93.50;101510.13;6016135;23;19914;-69
2023/02/17 10:42:26;;;;;;;5.68;5.38;;;;;;;14.17;92.60;101444.59;6016862;23;20106;-70
2023/02/17 10:45:02;;;;;;;6.32;5.90;;;;;;;14.18;91.97;101435.78;6039038;23;20170;-70
2023/02/17 10:47:29;;;;;;;6.13;5.72;;;;;;;13.86;92.43;101416.44;5995184;23;20039;-70
2023/02/17 10:49:56;;;;;;;6.00;5.55;;;;;;;13.90;92.86;101437.28;6042057;23;20030;-71
2023/02/17 10:52:35;;;;;;;5.97;5.57;;;;;;;14.14;93.37;101505.50;6021025;23;20047;-70
2023/02/17 10:55:24;;;;;;;5.80;5.40;;;;;;;13.98;94.29;101505.47;6023510;23;20039;-70
2023/02/17 10:57:57;;;;;;;5.65;5.25;;;;;;;13.68;96.37;101463.13;6031677;23;20030;-69
2023/02/17 11:00:25;;;;;;;5.70;5.30;;;;;;;13.90;97.03;101502.41;6022005;23;20422;-70
2023/02/17 11:02:52;;;;;;;6.13;5.60;;;;;;;11.76;96.86;101205.88;6040711;23;20018;-69
2023/02/17 11:05:33;;;;;;;5.90;5.50;;;;;;;13.99;97.25;101511.59;6022173;23;20031;-70
2023/02/17 11:08:29;;;;;;;5.45;5.15;;;;;;;13.81;97.24;101498.47;6048136;23;20018;-70
2023/02/17 11:11:05;;;;;;;5.80;5.30;;;;;;;13.69;97.97;101478.00;6026491;23;20026;-69
2023/02/17 11:13:39;;;;;;;6.65;6.00;;;;;;;13.97;98.31;101522.22;6022247;23;20101;-69
2023/02/17 11:16:06;;;;;;;5.50;5.20;;;;;;;13.03;98.27;101360.13;6065779;23;20107;-69
2023/02/17 11:18:47;;;;;;;6.03;5.63;;;;;;;14.07;97.49;101515.56;6044992;23;20034;-71
2023/02/17 11:21:13;;;;;;;5.38;5.07;;;;;;;13.01;98.82;101360.25;6044840;23;20673;-69
2023/02/17 11:24:01;;;;;;;5.65;5.35;;;;;;;14.03;98.94;101526.34;6021458;23;20027;-70
2023/02/17 11:26:32;;;;;;;6.00;5.60;;;;;;;14.20;98.98;101528.94;6024131;23;20027;-70
2023/02/17 11:29:20;;;;;;;5.45;5.15;;;;;;;14.22;96.87;101507.75;6023332;23;20047;-70
2023/02/17 11:32:05;;;;;;;5.78;5.38;;;;;;;14.31;95.38;101504.56;6023896;23;20364;-69
2023/02/17 11:34:37;;;;;;;7.55;5.25;;;;;;;14.27;95.10;101472.22;6069979;23;20110;-70
2023/02/17 11:37:12;;;;;;;5.50;5.20;;;;;;;13.79;94.10;101360.53;5997117;23;20065;-70
2023/02/17 11:39:42;;;;;;;5.80;5.30;;;;;;;14.59;91.35;101443.16;6024210;23;20086;-70
2023/02/17 11:42:15;;;;;;;5.32;5.03;;;;;;;14.67;90.39;101440.09;6049320;23;20030;-69